sensor_id;sensor_type;location;lat;lon;timestamp;P1;durP1;ratioP1;P2;durP2;ratioP2
44536;SDS011;30245;51.966;6.292;2022-07-21T00:01:34;4.35;;;3.88;;
44536;SDS011;30245;51.966;6.292;2022-07-21T00:04:00;4.10;;;3.70;;
44536;SDS011;30245;51.966;6.292;2022-07-21T00:06:26;3.55;;;3.25;;
44536;SDS011;30245;51.966;6.292;2022-07-21T00:08:52;3.25;;;3.05;;
44536;SDS011;30245;51.966;6.292;2022-07-21T00:11:18;3.83;;;2.92;;
44536;SDS011;30245;51.966;6.292;2022-07-21T00:13:43;3.75;;;3.45;;
44536;SDS011;30245;51.966;6.292;2022-07-21T00:16:09;3.38;;;3.08;;
44536;SDS011;30245;51.966;6.292;2022-07-21T00:18:35;3.67;;;3.38;;
44536;SDS011;30245;51.966;6.292;2022-07-21T00:21:01;3.95;;;3.25;;
44536;SDS011;30245;51.966;6.292;2022-07-21T00:23:27;3.10;;;2.67;;
44536;SDS011;30245;51.966;6.292;2022-07-21T00:25:53;3.28;;;2.80;;
44536;SDS011;30245;51.966;6.292;2022-07-21T00:28:19;3.50;;;3.00;;
44536;SDS011;30245;51.966;6.292;2022-07-21T00:30:45;4.32;;;3.92;;
44536;SDS011;30245;51.966;6.292;2022-07-21T00:33:11;3.95;;;3.47;;
44536;SDS011;30245;51.966;6.292;2022-07-21T00:35:37;3.60;;;3.30;;
44536;SDS011;30245;51.966;6.292;2022-07-21T00:38:02;5.18;;;4.72;;
44536;SDS011;30245;51.966;6.292;2022-07-21T00:40:28;4.50;;;4.15;;
44536;SDS011;30245;51.966;6.292;2022-07-21T00:42:54;7.05;;;4.82;;
44536;SDS011;30245;51.966;6.292;2022-07-21T00:45:20;6.15;;;4.85;;
44536;SDS011;30245;51.966;6.292;2022-07-21T00:47:46;6.35;;;5.03;;
44536;SDS011;30245;51.966;6.292;2022-07-21T00:50:13;6.07;;;5.47;;
44536;SDS011;30245;51.966;6.292;2022-07-21T00:52:42;7.10;;;5.20;;
44536;SDS011;30245;51.966;6.292;2022-07-21T00:55:10;6.80;;;5.45;;
44536;SDS011;30245;51.966;6.292;2022-07-21T00:57:39;6.35;;;5.85;;
44536;SDS011;30245;51.966;6.292;2022-07-21T01:00:07;6.43;;;5.57;;
44536;SDS011;30245;51.966;6.292;2022-07-21T01:02:35;8.80;;;6.45;;
44536;SDS011;30245;51.966;6.292;2022-07-21T01:05:05;6.13;;;5.63;;
44536;SDS011;30245;51.966;6.292;2022-07-21T01:07:37;7.68;;;6.95;;
44536;SDS011;30245;51.966;6.292;2022-07-21T01:10:04;8.85;;;7.53;;
44536;SDS011;30245;51.966;6.292;2022-07-21T01:12:30;8.70;;;7.88;;
44536;SDS011;30245;51.966;6.292;2022-07-21T01:14:56;7.97;;;7.38;;
44536;SDS011;30245;51.966;6.292;2022-07-21T01:17:22;9.50;;;7.20;;
44536;SDS011;30245;51.966;6.292;2022-07-21T01:19:48;8.00;;;7.25;;
44536;SDS011;30245;51.966;6.292;2022-07-21T01:22:14;8.15;;;7.53;;
44536;SDS011;30245;51.966;6.292;2022-07-21T01:24:40;8.80;;;7.07;;
44536;SDS011;30245;51.966;6.292;2022-07-21T01:27:05;8.52;;;7.47;;
44536;SDS011;30245;51.966;6.292;2022-07-21T01:29:31;10.60;;;9.63;;
44536;SDS011;30245;51.966;6.292;2022-07-21T01:31:57;8.15;;;7.35;;
44536;SDS011;30245;51.966;6.292;2022-07-21T01:34:22;9.40;;;8.50;;
44536;SDS011;30245;51.966;6.292;2022-07-21T01:36:48;11.60;;;10.50;;
44536;SDS011;30245;51.966;6.292;2022-07-21T01:39:14;10.90;;;9.85;;
44536;SDS011;30245;51.966;6.292;2022-07-21T01:41:58;11.35;;;10.35;;
44536;SDS011;30245;51.966;6.292;2022-07-21T01:44:24;13.20;;;10.40;;
44536;SDS011;30245;51.966;6.292;2022-07-21T01:46:51;9.98;;;8.60;;
44536;SDS011;30245;51.966;6.292;2022-07-21T01:49:17;8.93;;;8.30;;
44536;SDS011;30245;51.966;6.292;2022-07-21T01:51:44;9.93;;;9.02;;
44536;SDS011;30245;51.966;6.292;2022-07-21T01:54:10;10.43;;;9.30;;
44536;SDS011;30245;51.966;6.292;2022-07-21T01:56:37;7.53;;;6.82;;
44536;SDS011;30245;51.966;6.292;2022-07-21T01:59:03;7.93;;;7.22;;
44536;SDS011;30245;51.966;6.292;2022-07-21T02:01:30;6.63;;;6.03;;
44536;SDS011;30245;51.966;6.292;2022-07-21T02:03:57;6.90;;;6.40;;
44536;SDS011;30245;51.966;6.292;2022-07-21T02:06:24;7.18;;;6.38;;
44536;SDS011;30245;51.966;6.292;2022-07-21T02:08:50;6.53;;;6.00;;
44536;SDS011;30245;51.966;6.292;2022-07-21T02:11:16;6.38;;;5.57;;
44536;SDS011;30245;51.966;6.292;2022-07-21T02:13:42;5.95;;;5.10;;
44536;SDS011;30245;51.966;6.292;2022-07-21T02:16:08;6.30;;;5.70;;
44536;SDS011;30245;51.966;6.292;2022-07-21T02:18:34;6.22;;;5.80;;
44536;SDS011;30245;51.966;6.292;2022-07-21T02:21:00;5.97;;;5.50;;
44536;SDS011;30245;51.966;6.292;2022-07-21T02:23:26;6.45;;;6.05;;
44536;SDS011;30245;51.966;6.292;2022-07-21T02:25:52;6.88;;;6.28;;
44536;SDS011;30245;51.966;6.292;2022-07-21T02:28:19;6.78;;;6.18;;
44536;SDS011;30245;51.966;6.292;2022-07-21T02:30:46;7.25;;;6.70;;
44536;SDS011;30245;51.966;6.292;2022-07-21T02:33:11;6.53;;;6.03;;
44536;SDS011;30245;51.966;6.292;2022-07-21T02:35:37;8.25;;;7.55;;
44536;SDS011;30245;51.966;6.292;2022-07-21T02:38:04;7.32;;;6.68;;
44536;SDS011;30245;51.966;6.292;2022-07-21T02:40:29;8.65;;;7.95;;
44536;SDS011;30245;51.966;6.292;2022-07-21T02:42:55;8.32;;;7.68;;
44536;SDS011;30245;51.966;6.292;2022-07-21T02:45:21;9.23;;;8.50;;
44536;SDS011;30245;51.966;6.292;2022-07-21T02:48:00;8.35;;;7.35;;
44536;SDS011;30245;51.966;6.292;2022-07-21T02:50:31;8.23;;;7.43;;
44536;SDS011;30245;51.966;6.292;2022-07-21T02:53:17;8.88;;;7.88;;
44536;SDS011;30245;51.966;6.292;2022-07-21T02:55:44;8.40;;;7.65;;
44536;SDS011;30245;51.966;6.292;2022-07-21T02:58:23;9.20;;;8.40;;
44536;SDS011;30245;51.966;6.292;2022-07-21T03:00:52;10.57;;;9.57;;
44536;SDS011;30245;51.966;6.292;2022-07-21T03:03:20;9.70;;;8.52;;
44536;SDS011;30245;51.966;6.292;2022-07-21T03:05:47;7.83;;;7.23;;
44536;SDS011;30245;51.966;6.292;2022-07-21T03:08:13;9.65;;;8.82;;
44536;SDS011;30245;51.966;6.292;2022-07-21T03:10:39;9.55;;;8.85;;
44536;SDS011;30245;51.966;6.292;2022-07-21T03:13:05;10.50;;;9.57;;
44536;SDS011;30245;51.966;6.292;2022-07-21T03:15:31;12.73;;;11.48;;
44536;SDS011;30245;51.966;6.292;2022-07-21T03:17:57;13.55;;;12.15;;
44536;SDS011;30245;51.966;6.292;2022-07-21T03:20:23;14.63;;;12.68;;
44536;SDS011;30245;51.966;6.292;2022-07-21T03:22:49;15.20;;;13.70;;
44536;SDS011;30245;51.966;6.292;2022-07-21T03:25:15;12.88;;;11.60;;
44536;SDS011;30245;51.966;6.292;2022-07-21T03:27:42;10.88;;;9.95;;
44536;SDS011;30245;51.966;6.292;2022-07-21T03:30:08;10.77;;;9.93;;
44536;SDS011;30245;51.966;6.292;2022-07-21T03:32:34;11.50;;;10.50;;
44536;SDS011;30245;51.966;6.292;2022-07-21T03:35:01;12.20;;;10.75;;
44536;SDS011;30245;51.966;6.292;2022-07-21T03:37:28;14.32;;;11.02;;
44536;SDS011;30245;51.966;6.292;2022-07-21T03:39:54;11.07;;;9.55;;
44536;SDS011;30245;51.966;6.292;2022-07-21T03:42:20;10.68;;;9.75;;
44536;SDS011;30245;51.966;6.292;2022-07-21T03:44:45;10.60;;;9.60;;
44536;SDS011;30245;51.966;6.292;2022-07-21T03:47:11;14.60;;;11.07;;
44536;SDS011;30245;51.966;6.292;2022-07-21T03:49:37;11.00;;;9.90;;
44536;SDS011;30245;51.966;6.292;2022-07-21T03:52:03;12.07;;;10.80;;
44536;SDS011;30245;51.966;6.292;2022-07-21T03:54:29;13.60;;;12.23;;
44536;SDS011;30245;51.966;6.292;2022-07-21T03:56:54;14.48;;;13.05;;
44536;SDS011;30245;51.966;6.292;2022-07-21T03:59:20;11.63;;;10.52;;
44536;SDS011;30245;51.966;6.292;2022-07-21T04:01:46;11.63;;;9.85;;
44536;SDS011;30245;51.966;6.292;2022-07-21T04:04:11;13.05;;;11.85;;
44536;SDS011;30245;51.966;6.292;2022-07-21T04:06:37;12.60;;;11.30;;
44536;SDS011;30245;51.966;6.292;2022-07-21T04:09:03;13.07;;;11.70;;
44536;SDS011;30245;51.966;6.292;2022-07-21T04:11:28;12.07;;;10.88;;
44536;SDS011;30245;51.966;6.292;2022-07-21T04:13:55;14.38;;;12.93;;
44536;SDS011;30245;51.966;6.292;2022-07-21T04:16:21;12.30;;;10.80;;
44536;SDS011;30245;51.966;6.292;2022-07-21T04:18:47;11.95;;;10.93;;
44536;SDS011;30245;51.966;6.292;2022-07-21T04:21:13;13.15;;;11.85;;
44536;SDS011;30245;51.966;6.292;2022-07-21T04:23:38;12.52;;;11.25;;
44536;SDS011;30245;51.966;6.292;2022-07-21T04:26:04;11.77;;;10.60;;
44536;SDS011;30245;51.966;6.292;2022-07-21T04:28:30;10.77;;;9.77;;
44536;SDS011;30245;51.966;6.292;2022-07-21T04:30:56;16.13;;;12.15;;
44536;SDS011;30245;51.966;6.292;2022-07-21T04:33:21;11.00;;;10.10;;
44536;SDS011;30245;51.966;6.292;2022-07-21T04:35:47;12.07;;;10.98;;
44536;SDS011;30245;51.966;6.292;2022-07-21T04:38:13;13.57;;;11.48;;
44536;SDS011;30245;51.966;6.292;2022-07-21T04:40:39;12.02;;;10.93;;
44536;SDS011;30245;51.966;6.292;2022-07-21T04:43:05;14.05;;;12.68;;
44536;SDS011;30245;51.966;6.292;2022-07-21T04:45:31;10.50;;;9.70;;
44536;SDS011;30245;51.966;6.292;2022-07-21T04:47:57;10.48;;;9.57;;
44536;SDS011;30245;51.966;6.292;2022-07-21T04:50:23;10.95;;;9.95;;
44536;SDS011;30245;51.966;6.292;2022-07-21T04:52:51;10.63;;;8.98;;
44536;SDS011;30245;51.966;6.292;2022-07-21T04:55:17;11.80;;;10.70;;
44536;SDS011;30245;51.966;6.292;2022-07-21T04:57:45;11.65;;;10.13;;
44536;SDS011;30245;51.966;6.292;2022-07-21T05:00:13;10.27;;;9.38;;
44536;SDS011;30245;51.966;6.292;2022-07-21T05:02:44;14.23;;;11.23;;
44536;SDS011;30245;51.966;6.292;2022-07-21T05:05:11;10.30;;;9.27;;
44536;SDS011;30245;51.966;6.292;2022-07-21T05:07:38;12.70;;;10.23;;
44536;SDS011;30245;51.966;6.292;2022-07-21T05:10:05;10.85;;;9.85;;
44536;SDS011;30245;51.966;6.292;2022-07-21T05:12:32;11.80;;;10.75;;
44536;SDS011;30245;51.966;6.292;2022-07-21T05:14:57;12.75;;;10.68;;
44536;SDS011;30245;51.966;6.292;2022-07-21T05:17:23;11.15;;;9.85;;
44536;SDS011;30245;51.966;6.292;2022-07-21T05:19:49;11.95;;;10.75;;
44536;SDS011;30245;51.966;6.292;2022-07-21T05:22:15;12.75;;;11.55;;
44536;SDS011;30245;51.966;6.292;2022-07-21T05:24:42;13.15;;;11.55;;
44536;SDS011;30245;51.966;6.292;2022-07-21T05:27:08;14.02;;;10.85;;
44536;SDS011;30245;51.966;6.292;2022-07-21T05:29:33;16.25;;;11.90;;
44536;SDS011;30245;51.966;6.292;2022-07-21T05:31:59;11.68;;;10.45;;
44536;SDS011;30245;51.966;6.292;2022-07-21T05:34:25;12.32;;;11.20;;
44536;SDS011;30245;51.966;6.292;2022-07-21T05:36:51;12.23;;;11.23;;
44536;SDS011;30245;51.966;6.292;2022-07-21T05:39:18;14.45;;;12.07;;
44536;SDS011;30245;51.966;6.292;2022-07-21T05:41:43;14.07;;;12.68;;
44536;SDS011;30245;51.966;6.292;2022-07-21T05:44:09;13.40;;;12.00;;
44536;SDS011;30245;51.966;6.292;2022-07-21T05:46:35;14.10;;;12.63;;
44536;SDS011;30245;51.966;6.292;2022-07-21T05:49:00;19.95;;;15.65;;
44536;SDS011;30245;51.966;6.292;2022-07-21T05:51:26;15.48;;;13.98;;
44536;SDS011;30245;51.966;6.292;2022-07-21T05:53:52;17.42;;;15.65;;
44536;SDS011;30245;51.966;6.292;2022-07-21T05:56:17;16.58;;;14.85;;
44536;SDS011;30245;51.966;6.292;2022-07-21T05:58:43;14.90;;;13.57;;
44536;SDS011;30245;51.966;6.292;2022-07-21T06:01:09;15.55;;;14.07;;
44536;SDS011;30245;51.966;6.292;2022-07-21T06:03:38;15.93;;;14.32;;
44536;SDS011;30245;51.966;6.292;2022-07-21T06:06:05;18.73;;;14.18;;
44536;SDS011;30245;51.966;6.292;2022-07-21T06:08:31;18.50;;;16.33;;
44536;SDS011;30245;51.966;6.292;2022-07-21T06:10:57;18.95;;;14.90;;
44536;SDS011;30245;51.966;6.292;2022-07-21T06:13:23;19.20;;;15.43;;
44536;SDS011;30245;51.966;6.292;2022-07-21T06:15:48;17.65;;;15.85;;
44536;SDS011;30245;51.966;6.292;2022-07-21T06:18:14;17.80;;;15.80;;
44536;SDS011;30245;51.966;6.292;2022-07-21T06:20:40;18.40;;;15.77;;
44536;SDS011;30245;51.966;6.292;2022-07-21T06:23:07;18.52;;;16.55;;
44536;SDS011;30245;51.966;6.292;2022-07-21T06:25:32;22.30;;;19.67;;
44536;SDS011;30245;51.966;6.292;2022-07-21T06:27:58;21.50;;;18.13;;
44536;SDS011;30245;51.966;6.292;2022-07-21T06:30:24;21.83;;;19.17;;
44536;SDS011;30245;51.966;6.292;2022-07-21T06:32:50;22.30;;;19.77;;
44536;SDS011;30245;51.966;6.292;2022-07-21T06:35:15;19.88;;;17.95;;
44536;SDS011;30245;51.966;6.292;2022-07-21T06:37:47;25.85;;;20.17;;
44536;SDS011;30245;51.966;6.292;2022-07-21T06:40:13;20.88;;;18.65;;
44536;SDS011;30245;51.966;6.292;2022-07-21T06:42:39;20.95;;;16.92;;
44536;SDS011;30245;51.966;6.292;2022-07-21T06:45:05;17.92;;;16.13;;
44536;SDS011;30245;51.966;6.292;2022-07-21T06:47:31;20.77;;;18.60;;
44536;SDS011;30245;51.966;6.292;2022-07-21T06:49:57;19.75;;;17.65;;
44536;SDS011;30245;51.966;6.292;2022-07-21T06:52:27;18.05;;;16.20;;
44536;SDS011;30245;51.966;6.292;2022-07-21T06:54:56;19.02;;;17.15;;
44536;SDS011;30245;51.966;6.292;2022-07-21T06:57:22;19.35;;;17.20;;
44536;SDS011;30245;51.966;6.292;2022-07-21T06:59:48;17.42;;;15.45;;
44536;SDS011;30245;51.966;6.292;2022-07-21T07:02:14;17.50;;;15.63;;
44536;SDS011;30245;51.966;6.292;2022-07-21T07:04:40;21.15;;;18.95;;
44536;SDS011;30245;51.966;6.292;2022-07-21T07:07:06;21.05;;;19.10;;
44536;SDS011;30245;51.966;6.292;2022-07-21T07:09:32;20.77;;;18.88;;
44536;SDS011;30245;51.966;6.292;2022-07-21T07:11:58;18.77;;;16.98;;
44536;SDS011;30245;51.966;6.292;2022-07-21T07:14:29;17.45;;;15.55;;
44536;SDS011;30245;51.966;6.292;2022-07-21T07:16:55;17.13;;;15.63;;
44536;SDS011;30245;51.966;6.292;2022-07-21T07:19:21;19.17;;;16.20;;
44536;SDS011;30245;51.966;6.292;2022-07-21T07:21:47;16.33;;;14.68;;
44536;SDS011;30245;51.966;6.292;2022-07-21T07:24:12;17.45;;;15.63;;
44536;SDS011;30245;51.966;6.292;2022-07-21T07:26:38;18.75;;;16.88;;
44536;SDS011;30245;51.966;6.292;2022-07-21T07:29:04;20.98;;;18.52;;
44536;SDS011;30245;51.966;6.292;2022-07-21T07:31:29;20.75;;;18.35;;
44536;SDS011;30245;51.966;6.292;2022-07-21T07:33:55;17.88;;;16.00;;
44536;SDS011;30245;51.966;6.292;2022-07-21T07:36:23;19.02;;;17.20;;
44536;SDS011;30245;51.966;6.292;2022-07-21T07:38:50;16.70;;;15.18;;
44536;SDS011;30245;51.966;6.292;2022-07-21T07:41:16;17.13;;;15.43;;
44536;SDS011;30245;51.966;6.292;2022-07-21T07:43:43;16.08;;;14.43;;
44536;SDS011;30245;51.966;6.292;2022-07-21T07:46:09;19.25;;;15.50;;
44536;SDS011;30245;51.966;6.292;2022-07-21T07:48:36;16.42;;;14.75;;
44536;SDS011;30245;51.966;6.292;2022-07-21T07:51:02;15.77;;;14.20;;
44536;SDS011;30245;51.966;6.292;2022-07-21T07:53:28;16.95;;;14.95;;
44536;SDS011;30245;51.966;6.292;2022-07-21T07:55:54;17.63;;;15.27;;
44536;SDS011;30245;51.966;6.292;2022-07-21T07:58:20;17.30;;;15.70;;
44536;SDS011;30245;51.966;6.292;2022-07-21T08:00:46;16.92;;;15.20;;
44536;SDS011;30245;51.966;6.292;2022-07-21T08:03:12;19.65;;;17.63;;
44536;SDS011;30245;51.966;6.292;2022-07-21T08:05:37;16.75;;;15.15;;
44536;SDS011;30245;51.966;6.292;2022-07-21T08:08:03;16.92;;;15.45;;
44536;SDS011;30245;51.966;6.292;2022-07-21T08:10:30;17.65;;;15.95;;
44536;SDS011;30245;51.966;6.292;2022-07-21T08:12:56;18.70;;;17.00;;
44536;SDS011;30245;51.966;6.292;2022-07-21T08:15:22;19.55;;;16.15;;
44536;SDS011;30245;51.966;6.292;2022-07-21T08:17:47;16.83;;;15.07;;
44536;SDS011;30245;51.966;6.292;2022-07-21T08:20:13;18.10;;;16.13;;
44536;SDS011;30245;51.966;6.292;2022-07-21T08:22:39;16.52;;;14.68;;
44536;SDS011;30245;51.966;6.292;2022-07-21T08:25:05;17.05;;;15.35;;
44536;SDS011;30245;51.966;6.292;2022-07-21T08:27:31;16.33;;;14.77;;
44536;SDS011;30245;51.966;6.292;2022-07-21T08:29:57;15.00;;;13.55;;
44536;SDS011;30245;51.966;6.292;2022-07-21T08:32:23;15.13;;;13.43;;
44536;SDS011;30245;51.966;6.292;2022-07-21T08:34:49;14.13;;;12.48;;
44536;SDS011;30245;51.966;6.292;2022-07-21T08:37:15;15.10;;;13.80;;
44536;SDS011;30245;51.966;6.292;2022-07-21T08:39:43;14.07;;;12.73;;
44536;SDS011;30245;51.966;6.292;2022-07-21T08:42:09;14.57;;;12.82;;
44536;SDS011;30245;51.966;6.292;2022-07-21T08:44:37;13.07;;;11.75;;
44536;SDS011;30245;51.966;6.292;2022-07-21T08:47:03;12.57;;;11.25;;
44536;SDS011;30245;51.966;6.292;2022-07-21T08:49:30;12.70;;;11.43;;
44536;SDS011;30245;51.966;6.292;2022-07-21T08:52:00;11.85;;;10.65;;
44536;SDS011;30245;51.966;6.292;2022-07-21T08:54:26;11.00;;;10.05;;
44536;SDS011;30245;51.966;6.292;2022-07-21T08:56:52;15.85;;;10.85;;
44536;SDS011;30245;51.966;6.292;2022-07-21T08:59:19;12.77;;;11.57;;
44536;SDS011;30245;51.966;6.292;2022-07-21T09:01:47;18.75;;;10.95;;
44536;SDS011;30245;51.966;6.292;2022-07-21T09:04:27;11.45;;;9.77;;
44536;SDS011;30245;51.966;6.292;2022-07-21T09:07:02;11.20;;;10.20;;
44536;SDS011;30245;51.966;6.292;2022-07-21T09:09:29;13.40;;;12.20;;
44536;SDS011;30245;51.966;6.292;2022-07-21T09:11:56;12.85;;;11.45;;
44536;SDS011;30245;51.966;6.292;2022-07-21T09:14:23;11.60;;;9.93;;
44536;SDS011;30245;51.966;6.292;2022-07-21T09:16:57;12.18;;;10.38;;
44536;SDS011;30245;51.966;6.292;2022-07-21T09:21:56;11.05;;;10.07;;
44536;SDS011;30245;51.966;6.292;2022-07-21T09:29:36;9.50;;;8.50;;
44536;SDS011;30245;51.966;6.292;2022-07-21T09:34:39;9.80;;;8.75;;
44536;SDS011;30245;51.966;6.292;2022-07-21T09:37:05;10.80;;;7.28;;
44536;SDS011;30245;51.966;6.292;2022-07-21T09:39:48;12.93;;;9.83;;
44536;SDS011;30245;51.966;6.292;2022-07-21T09:44:42;8.35;;;7.55;;
44536;SDS011;30245;51.966;6.292;2022-07-21T09:47:15;8.30;;;7.53;;
44536;SDS011;30245;51.966;6.292;2022-07-21T09:52:18;9.32;;;8.43;;
44536;SDS011;30245;51.966;6.292;2022-07-21T09:54:47;12.88;;;8.68;;
44536;SDS011;30245;51.966;6.292;2022-07-21T09:57:14;9.55;;;8.52;;
44536;SDS011;30245;51.966;6.292;2022-07-21T09:59:44;11.27;;;9.02;;
44536;SDS011;30245;51.966;6.292;2022-07-21T10:02:14;9.50;;;7.75;;
44536;SDS011;30245;51.966;6.292;2022-07-21T10:05:08;11.47;;;10.23;;
44536;SDS011;30245;51.966;6.292;2022-07-21T10:07:40;13.30;;;10.70;;
44536;SDS011;30245;51.966;6.292;2022-07-21T10:10:07;11.07;;;8.15;;
44536;SDS011;30245;51.966;6.292;2022-07-21T10:12:34;9.60;;;8.73;;
44536;SDS011;30245;51.966;6.292;2022-07-21T10:15:00;9.45;;;8.40;;
44536;SDS011;30245;51.966;6.292;2022-07-21T10:17:26;12.95;;;10.13;;
44536;SDS011;30245;51.966;6.292;2022-07-21T10:20:08;10.32;;;9.38;;
44536;SDS011;30245;51.966;6.292;2022-07-21T10:23:10;9.25;;;8.48;;
44536;SDS011;30245;51.966;6.292;2022-07-21T10:25:36;9.40;;;8.52;;
44536;SDS011;30245;51.966;6.292;2022-07-21T10:30:39;10.88;;;7.47;;
44536;SDS011;30245;51.966;6.292;2022-07-21T10:33:10;7.55;;;6.22;;
44536;SDS011;30245;51.966;6.292;2022-07-21T10:35:40;4.32;;;3.65;;
44536;SDS011;30245;51.966;6.292;2022-07-21T10:38:07;2.05;;;1.70;;
44536;SDS011;30245;51.966;6.292;2022-07-21T10:40:54;2.53;;;1.27;;
44536;SDS011;30245;51.966;6.292;2022-07-21T10:45:49;2.22;;;1.08;;
44536;SDS011;30245;51.966;6.292;2022-07-21T10:51:10;1.13;;;0.80;;
44536;SDS011;30245;51.966;6.292;2022-07-21T10:53:38;1.23;;;0.65;;
44536;SDS011;30245;51.966;6.292;2022-07-21T10:56:04;0.80;;;0.50;;
44536;SDS011;30245;51.966;6.292;2022-07-21T10:58:32;0.80;;;0.50;;
44536;SDS011;30245;51.966;6.292;2022-07-21T11:03:33;0.85;;;0.57;;
44536;SDS011;30245;51.966;6.292;2022-07-21T11:08:38;2.05;;;0.60;;
44536;SDS011;30245;51.966;6.292;2022-07-21T11:11:07;1.02;;;0.63;;
44536;SDS011;30245;51.966;6.292;2022-07-21T11:14:04;1.70;;;0.80;;
44536;SDS011;30245;51.966;6.292;2022-07-21T11:21:53;3.30;;;0.57;;
44536;SDS011;30245;51.966;6.292;2022-07-21T11:24:19;1.67;;;0.50;;
44536;SDS011;30245;51.966;6.292;2022-07-21T11:27:20;1.25;;;0.93;;
44536;SDS011;30245;51.966;6.292;2022-07-21T11:29:41;1.83;;;0.88;;
44536;SDS011;30245;51.966;6.292;2022-07-21T11:32:08;1.77;;;0.50;;
44536;SDS011;30245;51.966;6.292;2022-07-21T11:37:33;1.90;;;0.45;;
44536;SDS011;30245;51.966;6.292;2022-07-21T11:40:05;2.25;;;0.60;;
44536;SDS011;30245;51.966;6.292;2022-07-21T11:42:39;1.58;;;1.48;;
44536;SDS011;30245;51.966;6.292;2022-07-21T11:45:06;2.53;;;1.13;;
44536;SDS011;30245;51.966;6.292;2022-07-21T11:47:32;1.52;;;0.93;;
44536;SDS011;30245;51.966;6.292;2022-07-21T11:49:59;0.90;;;0.70;;
44536;SDS011;30245;51.966;6.292;2022-07-21T11:52:27;2.03;;;1.00;;
44536;SDS011;30245;51.966;6.292;2022-07-21T11:54:58;1.50;;;1.15;;
44536;SDS011;30245;51.966;6.292;2022-07-21T11:57:25;2.28;;;1.60;;
44536;SDS011;30245;51.966;6.292;2022-07-21T11:59:52;1.67;;;1.52;;
44536;SDS011;30245;51.966;6.292;2022-07-21T12:02:19;2.60;;;2.40;;
44536;SDS011;30245;51.966;6.292;2022-07-21T12:04:53;2.67;;;2.47;;
44536;SDS011;30245;51.966;6.292;2022-07-21T12:09:59;3.42;;;2.33;;
44536;SDS011;30245;51.966;6.292;2022-07-21T12:12:34;2.35;;;2.15;;
44536;SDS011;30245;51.966;6.292;2022-07-21T12:17:51;4.05;;;3.75;;
44536;SDS011;30245;51.966;6.292;2022-07-21T12:23:02;3.72;;;3.45;;
44536;SDS011;30245;51.966;6.292;2022-07-21T12:25:42;5.20;;;4.80;;
44536;SDS011;30245;51.966;6.292;2022-07-21T12:28:08;4.60;;;4.30;;
44536;SDS011;30245;51.966;6.292;2022-07-21T12:30:35;4.22;;;3.92;;
44536;SDS011;30245;51.966;6.292;2022-07-21T12:33:07;6.07;;;5.57;;
44536;SDS011;30245;51.966;6.292;2022-07-21T12:35:36;4.40;;;4.10;;
44536;SDS011;30245;51.966;6.292;2022-07-21T12:38:13;5.45;;;4.90;;
44536;SDS011;30245;51.966;6.292;2022-07-21T12:40:44;5.32;;;5.00;;
44536;SDS011;30245;51.966;6.292;2022-07-21T12:43:15;6.68;;;6.18;;
44536;SDS011;30245;51.966;6.292;2022-07-21T12:53:30;4.82;;;4.50;;
44536;SDS011;30245;51.966;6.292;2022-07-21T12:55:58;7.03;;;6.43;;
44536;SDS011;30245;51.966;6.292;2022-07-21T12:58:24;6.97;;;6.28;;
44536;SDS011;30245;51.966;6.292;2022-07-21T13:00:50;7.20;;;6.05;;
44536;SDS011;30245;51.966;6.292;2022-07-21T13:03:15;6.78;;;6.15;;
44536;SDS011;30245;51.966;6.292;2022-07-21T13:05:41;6.43;;;5.82;;
44536;SDS011;30245;51.966;6.292;2022-07-21T13:08:07;7.93;;;7.32;;
44536;SDS011;30245;51.966;6.292;2022-07-21T13:10:33;6.57;;;6.07;;
44536;SDS011;30245;51.966;6.292;2022-07-21T13:12:59;7.47;;;6.82;;
44536;SDS011;30245;51.966;6.292;2022-07-21T13:15:25;7.72;;;7.10;;
44536;SDS011;30245;51.966;6.292;2022-07-21T13:17:51;8.68;;;7.88;;
44536;SDS011;30245;51.966;6.292;2022-07-21T13:20:16;7.13;;;6.47;;
44536;SDS011;30245;51.966;6.292;2022-07-21T13:22:42;7.97;;;7.30;;
44536;SDS011;30245;51.966;6.292;2022-07-21T13:25:08;8.18;;;7.43;;
44536;SDS011;30245;51.966;6.292;2022-07-21T13:27:35;6.32;;;5.82;;
44536;SDS011;30245;51.966;6.292;2022-07-21T13:30:03;7.90;;;5.82;;
44536;SDS011;30245;51.966;6.292;2022-07-21T13:32:30;5.63;;;5.20;;
44536;SDS011;30245;51.966;6.292;2022-07-21T13:34:58;3.83;;;3.53;;
44536;SDS011;30245;51.966;6.292;2022-07-21T13:37:24;3.22;;;3.00;;
44536;SDS011;30245;51.966;6.292;2022-07-21T13:39:49;3.10;;;2.80;;
44536;SDS011;30245;51.966;6.292;2022-07-21T13:42:15;2.88;;;2.25;;
44536;SDS011;30245;51.966;6.292;2022-07-21T13:44:41;3.33;;;2.88;;
44536;SDS011;30245;51.966;6.292;2022-07-21T13:47:07;3.13;;;2.83;;
44536;SDS011;30245;51.966;6.292;2022-07-21T13:49:32;3.35;;;2.65;;
44536;SDS011;30245;51.966;6.292;2022-07-21T13:51:58;2.42;;;2.22;;
44536;SDS011;30245;51.966;6.292;2022-07-21T13:54:24;4.15;;;3.75;;
44536;SDS011;30245;51.966;6.292;2022-07-21T13:56:50;2.78;;;2.58;;
44536;SDS011;30245;51.966;6.292;2022-07-21T13:59:15;4.05;;;2.20;;
44536;SDS011;30245;51.966;6.292;2022-07-21T14:01:42;3.50;;;3.20;;
44536;SDS011;30245;51.966;6.292;2022-07-21T14:04:08;2.67;;;2.00;;
44536;SDS011;30245;51.966;6.292;2022-07-21T14:06:33;4.80;;;2.75;;
44536;SDS011;30245;51.966;6.292;2022-07-21T14:08:59;1.80;;;1.50;;
44536;SDS011;30245;51.966;6.292;2022-07-21T14:11:25;1.70;;;1.50;;
44536;SDS011;30245;51.966;6.292;2022-07-21T14:13:53;2.13;;;1.80;;
44536;SDS011;30245;51.966;6.292;2022-07-21T14:16:19;2.42;;;2.20;;
44536;SDS011;30245;51.966;6.292;2022-07-21T14:18:45;2.95;;;2.58;;
44536;SDS011;30245;51.966;6.292;2022-07-21T14:21:11;2.47;;;2.28;;
44536;SDS011;30245;51.966;6.292;2022-07-21T14:23:37;3.00;;;2.33;;
44536;SDS011;30245;51.966;6.292;2022-07-21T14:26:02;3.03;;;2.72;;
44536;SDS011;30245;51.966;6.292;2022-07-21T14:28:28;3.63;;;2.08;;
44536;SDS011;30245;51.966;6.292;2022-07-21T14:30:54;2.08;;;1.52;;
44536;SDS011;30245;51.966;6.292;2022-07-21T14:33:20;4.00;;;2.28;;
44536;SDS011;30245;51.966;6.292;2022-07-21T14:35:46;4.00;;;2.50;;
44536;SDS011;30245;51.966;6.292;2022-07-21T14:38:12;2.40;;;2.10;;
44536;SDS011;30245;51.966;6.292;2022-07-21T14:40:37;1.65;;;1.30;;
44536;SDS011;30245;51.966;6.292;2022-07-21T14:43:04;1.15;;;0.68;;
44536;SDS011;30245;51.966;6.292;2022-07-21T14:45:30;2.72;;;0.80;;
44536;SDS011;30245;51.966;6.292;2022-07-21T14:47:56;3.58;;;1.20;;
44536;SDS011;30245;51.966;6.292;2022-07-21T14:50:24;1.43;;;0.73;;
44536;SDS011;30245;51.966;6.292;2022-07-21T14:52:51;1.40;;;0.65;;
44536;SDS011;30245;51.966;6.292;2022-07-21T14:55:17;1.80;;;0.73;;
44536;SDS011;30245;51.966;6.292;2022-07-21T14:57:43;2.17;;;1.48;;
44536;SDS011;30245;51.966;6.292;2022-07-21T15:00:10;1.20;;;0.82;;
44536;SDS011;30245;51.966;6.292;2022-07-21T15:02:36;1.35;;;0.82;;
44536;SDS011;30245;51.966;6.292;2022-07-21T15:05:03;1.48;;;0.73;;
44536;SDS011;30245;51.966;6.292;2022-07-21T15:07:29;2.63;;;0.50;;
44536;SDS011;30245;51.966;6.292;2022-07-21T15:09:55;1.00;;;0.50;;
44536;SDS011;30245;51.966;6.292;2022-07-21T15:12:23;2.10;;;0.50;;
44536;SDS011;30245;51.966;6.292;2022-07-21T15:14:49;1.27;;;0.52;;
44536;SDS011;30245;51.966;6.292;2022-07-21T15:17:15;1.83;;;0.57;;
44536;SDS011;30245;51.966;6.292;2022-07-21T15:19:41;0.70;;;0.30;;
44536;SDS011;30245;51.966;6.292;2022-07-21T15:22:07;1.58;;;0.75;;
44536;SDS011;30245;51.966;6.292;2022-07-21T15:24:33;1.65;;;1.55;;
44536;SDS011;30245;51.966;6.292;2022-07-21T15:26:59;1.00;;;0.50;;
44536;SDS011;30245;51.966;6.292;2022-07-21T15:29:25;1.52;;;0.60;;